Time;durP1;ratioP1;P1;durP2;ratioP2;P2;SDS_P1;SDS_P2;PMS_P1;PMS_P2;Temp;Humidity;BMP_temperature;BMP_pressure;BME280_temperature;BME280_humidity;BME280_pressure;Samples;Min_cycle;Max_cycle;Signal;HPM_P1;HPM_P2
2021/11/05 00:01:10;;;;;;;;;;;;;;;;;;4518659;28;20088;-58
2021/11/05 00:03:21;;;;;;;37.40;33.80;;;;;;;;;;4536945;28;20016;-58
2021/11/05 00:05:33;;;;;;;39.33;35.53;;;;;;;;;;4524046;28;20037;-58
2021/11/05 00:07:43;;;;;;;38.17;34.57;;;;;;;;;;4537070;28;20043;-58
2021/11/05 00:09:55;;;;;;;38.75;35.05;;;;;;;;;;4537954;28;20040;-58
2021/11/05 00:12:05;;;;;;;38.63;35.00;;;;;;;;;;4538289;28;20065;-58
2021/11/05 00:14:16;;;;;;;40.73;36.83;;;;;;;;;;4538114;28;20033;-59
2021/11/05 00:16:26;;;;;;;41.13;37.23;;;;;;;;;;4539402;28;23897;-58
2021/11/05 00:18:37;;;;;;;40.07;36.23;;;;;;;;;;4539925;28;20513;-58
2021/11/05 00:20:47;;;;;;;41.80;37.87;;;;;;;;;;4539190;28;20043;-58
2021/11/05 00:22:58;;;;;;;40.57;36.67;;;;;;;;;;4505290;28;20568;-58
2021/11/05 00:25:08;;;;;;;40.93;37.03;;;;;;;;;;4538503;28;20088;-58
2021/11/05 00:27:19;;;;;;;41.53;37.53;;;;;;;;;;4534673;28;20174;-59
2021/11/05 00:29:29;;;;;;;42.67;38.47;;;;;;;;;;4538726;28;22108;-59
2021/11/05 00:31:40;;;;;;;12.97;11.23;;;;;;;;;;4539023;28;20032;-58
2021/11/05 00:33:50;;;;;;;13.23;11.70;;;;;;;;;;4538313;28;20112;-58
2021/11/05 00:36:00;;;;;;;40.53;36.63;;;;;;;;;;4538445;28;20045;-58
2021/11/05 00:38:11;;;;;;;42.47;38.40;;;;;;;;;;4520367;28;31530;-58
2021/11/05 00:40:25;;;;;;;9.20;7.33;;;;;;;;;;4537283;28;20099;-58
2021/11/05 00:42:35;;;;;;;12.88;11.15;;;;;;;;;;4521695;28;20764;-58
2021/11/05 00:44:46;;;;;;;20.10;18.13;;;;;;;;;;4538636;28;20048;-58
2021/11/05 00:46:56;;;;;;;43.20;39.10;;;;;;;;;;4504435;28;34075;-59
2021/11/05 00:49:06;;;;;;;42.80;38.67;;;;;;;;;;4538338;28;20480;-58
2021/11/05 00:51:17;;;;;;;13.27;11.40;;;;;;;;;;4525770;28;20152;-58
2021/11/05 00:53:27;;;;;;;12.23;10.70;;;;;;;;;;4539235;28;20136;-59
2021/11/05 00:55:38;;;;;;;13.73;11.87;;;;;;;;;;4538829;28;27234;-58
2021/11/05 00:57:48;;;;;;;12.83;10.90;;;;;;;;;;4539035;28;20033;-58
2021/11/05 00:59:58;;;;;;;12.83;11.43;;;;;;;;;;4538829;28;20037;-58
2021/11/05 01:02:09;;;;;;;13.33;11.10;;;;;;;;;;4538679;28;20036;-58
2021/11/05 01:04:20;;;;;;;18.67;16.67;;;;;;;;;;4539152;28;20076;-58
2021/11/05 01:06:30;;;;;;;42.67;38.50;;;;;;;;;;4538866;28;20401;-58
2021/11/05 01:08:41;;;;;;;43.22;39.10;;;;;;;;;;4538895;28;20029;-59
2021/11/05 01:10:52;;;;;;;42.57;38.57;;;;;;;;;;4538857;28;20131;-58
2021/11/05 01:13:03;;;;;;;40.80;37.00;;;;;;;;;;4537262;28;20039;-58
2021/11/05 01:15:14;;;;;;;41.60;37.70;;;;;;;;;;4521084;28;20129;-58
2021/11/05 01:17:24;;;;;;;43.00;38.90;;;;;;;;;;4520382;28;20181;-58
2021/11/05 01:19:35;;;;;;;42.27;38.27;;;;;;;;;;4521011;28;20033;-58
2021/11/05 01:21:45;;;;;;;41.80;37.80;;;;;;;;;;4537999;28;21130;-58
2021/11/05 01:23:56;;;;;;;6.63;5.70;;;;;;;;;;4538349;28;20405;-58
2021/11/05 01:26:06;;;;;;;13.73;11.23;;;;;;;;;;4539354;28;20033;-58
2021/11/05 01:28:17;;;;;;;41.20;37.27;;;;;;;;;;4526733;28;20037;-58
2021/11/05 01:30:27;;;;;;;40.63;36.80;;;;;;;;;;4541662;28;20025;-58
2021/11/05 01:32:38;;;;;;;41.53;37.43;;;;;;;;;;4540453;28;20516;-58
2021/11/05 01:34:49;;;;;;;11.43;9.88;;;;;;;;;;4540885;28;20075;-58
2021/11/05 01:36:59;;;;;;;13.67;11.57;;;;;;;;;;4541023;28;20124;-58
2021/11/05 01:39:10;;;;;;;37.73;34.17;;;;;;;;;;4537603;28;29542;-58
2021/11/05 01:41:20;;;;;;;31.97;29.03;;;;;;;;;;4541184;28;20033;-58
2021/11/05 01:43:31;;;;;;;41.17;37.37;;;;;;;;;;4522326;28;20042;-58
2021/11/05 01:45:42;;;;;;;40.57;36.67;;;;;;;;;;4542341;28;20037;-58
2021/11/05 01:47:53;;;;;;;39.30;35.50;;;;;;;;;;4524303;28;20026;-58
2021/11/05 01:50:05;;;;;;;40.17;36.40;;;;;;;;;;4541951;28;20025;-58
2021/11/05 01:52:15;;;;;;;13.15;11.32;;;;;;;;;;4537587;28;20056;-58
2021/11/05 01:54:26;;;;;;;35.50;32.03;;;;;;;;;;4542083;28;20036;-58
2021/11/05 01:56:37;;;;;;;37.10;33.70;;;;;;;;;;4541962;28;20045;-58
2021/11/05 01:58:48;;;;;;;40.63;36.83;;;;;;;;;;4541222;28;20025;-58
2021/11/05 02:00:58;;;;;;;12.03;10.47;;;;;;;;;;4540500;28;22356;-58
2021/11/05 02:03:09;;;;;;;12.07;9.90;;;;;;;;;;4541650;28;20501;-58
2021/11/05 02:05:20;;;;;;;13.50;11.20;;;;;;;;;;4541307;28;20044;-58
2021/11/05 02:07:34;;;;;;;13.20;10.85;;;;;;;;;;4522440;28;20037;-58
2021/11/05 02:09:45;;;;;;;12.77;10.70;;;;;;;;;;4542172;28;20088;-58
2021/11/05 02:12:00;;;;;;;12.23;9.98;;;;;;;;;;4541693;28;20552;-58
2021/11/05 02:14:19;;;;;;;12.77;10.93;;;;;;;;;;4538308;28;20080;-58
2021/11/05 02:16:30;;;;;;;13.40;11.23;;;;;;;;;;4540420;28;20056;-58
2021/11/05 02:18:41;;;;;;;13.80;10.90;;;;;;;;;;4540851;28;20049;-58
2021/11/05 02:20:55;;;;;;;12.75;10.57;;;;;;;;;;4538831;28;20039;-58
2021/11/05 02:23:05;;;;;;;12.38;10.52;;;;;;;;;;4541330;28;21597;-58
2021/11/05 02:25:16;;;;;;;13.43;10.93;;;;;;;;;;4523308;28;20029;-58
2021/11/05 02:27:30;;;;;;;13.27;11.40;;;;;;;;;;4540947;28;20041;-58
2021/11/05 02:29:41;;;;;;;13.35;11.13;;;;;;;;;;4541165;28;20591;-58
2021/11/05 02:31:52;;;;;;;13.27;10.87;;;;;;;;;;4541391;28;20040;-58
2021/11/05 02:34:03;;;;;;;30.63;27.75;;;;;;;;;;4537224;28;20091;-58
2021/11/05 02:36:13;;;;;;;29.20;26.40;;;;;;;;;;4522304;28;20143;-58
2021/11/05 02:38:24;;;;;;;12.90;10.90;;;;;;;;;;4541416;28;20087;-58
2021/11/05 02:40:35;;;;;;;13.23;11.60;;;;;;;;;;4522382;28;20052;-58
2021/11/05 02:42:45;;;;;;;13.33;11.50;;;;;;;;;;4522119;28;20466;-58
2021/11/05 02:44:55;;;;;;;14.00;11.87;;;;;;;;;;4541107;28;20033;-58
2021/11/05 02:47:15;;;;;;;13.63;11.40;;;;;;;;;;4540174;28;20037;-58
2021/11/05 02:49:25;;;;;;;14.20;11.68;;;;;;;;;;4541091;28;20047;-58
2021/11/05 02:51:38;;;;;;;13.53;10.97;;;;;;;;;;4540221;28;34421;-58
2021/11/05 02:53:49;;;;;;;12.82;11.18;;;;;;;;;;4523104;28;20080;-58
2021/11/05 02:55:59;;;;;;;13.33;11.20;;;;;;;;;;4540339;28;20052;-58
2021/11/05 02:58:10;;;;;;;13.23;10.70;;;;;;;;;;4540210;28;20037;-58
2021/11/05 03:00:20;;;;;;;13.33;11.10;;;;;;;;;;4522518;28;20030;-58
2021/11/05 03:02:31;;;;;;;12.70;10.97;;;;;;;;;;4541221;28;20037;-58
2021/11/05 03:04:41;;;;;;;12.87;10.40;;;;;;;;;;4540796;28;20248;-58
2021/11/05 03:06:59;;;;;;;13.43;11.00;;;;;;;;;;4540044;28;20028;-59
2021/11/05 03:09:15;;;;;;;14.38;11.77;;;;;;;;;;4506015;28;20077;-58
2021/11/05 03:11:25;;;;;;;12.82;11.05;;;;;;;;;;4540899;28;20033;-58
2021/11/05 03:13:36;;;;;;;14.00;11.50;;;;;;;;;;4525198;28;31921;-58
2021/11/05 03:15:46;;;;;;;14.30;11.20;;;;;;;;;;4540605;28;24273;-59
2021/11/05 03:17:58;;;;;;;12.33;10.13;;;;;;;;;;4541154;28;20492;-58
2021/11/05 03:20:10;;;;;;;13.20;10.77;;;;;;;;;;4540500;28;20219;-58
2021/11/05 03:22:21;;;;;;;12.80;10.40;;;;;;;;;;4540565;28;20049;-59
2021/11/05 03:24:32;;;;;;;12.23;10.00;;;;;;;;;;4522567;28;20041;-59
2021/11/05 03:26:42;;;;;;;13.03;10.23;;;;;;;;;;4539859;28;20112;-58
2021/11/05 03:28:53;;;;;;;12.00;10.00;;;;;;;;;;4540769;28;20044;-59
2021/11/05 03:31:03;;;;;;;12.37;10.03;;;;;;;;;;4540413;28;20029;-58
2021/11/05 03:33:13;;;;;;;11.93;9.73;;;;;;;;;;4540930;28;20036;-59
2021/11/05 03:35:24;;;;;;;12.77;10.23;;;;;;;;;;4522837;28;20061;-58
2021/11/05 03:37:35;;;;;;;11.43;9.37;;;;;;;;;;4540941;28;20482;-59
2021/11/05 03:39:45;;;;;;;11.18;9.18;;;;;;;;;;4539313;28;20068;-58
2021/11/05 03:41:57;;;;;;;11.67;9.33;;;;;;;;;;4540361;28;20037;-58
2021/11/05 03:44:07;;;;;;;;;;;;;;;;;;4540324;28;20092;-58
2021/11/05 03:46:18;;;;;;;11.70;9.40;;;;;;;;;;4540853;28;20412;-58
2021/11/05 03:48:29;;;;;;;11.10;8.53;;;;;;;;;;4540395;28;20068;-59
2021/11/05 03:50:39;;;;;;;12.07;9.30;;;;;;;;;;4540390;28;20120;-58
2021/11/05 03:52:50;;;;;;;11.80;9.60;;;;;;;;;;4538125;28;20051;-58
2021/11/05 03:55:02;;;;;;;11.23;8.67;;;;;;;;;;4539202;28;20037;-58
2021/11/05 03:57:12;;;;;;;11.32;8.88;;;;;;;;;;4539880;28;20033;-58
2021/11/05 03:59:23;;;;;;;10.77;8.87;;;;;;;;;;4538291;28;36167;-58
2021/11/05 04:01:33;;;;;;;11.43;9.03;;;;;;;;;;4539859;28;20028;-58
2021/11/05 04:03:44;;;;;;;11.73;8.97;;;;;;;;;;4539818;28;20044;-58
2021/11/05 04:05:54;;;;;;;11.47;9.00;;;;;;;;;;4539178;28;25486;-58
2021/11/05 04:08:05;;;;;;;11.80;9.07;;;;;;;;;;4538451;28;20037;-58
2021/11/05 04:10:15;;;;;;;11.10;9.13;;;;;;;;;;4539967;28;20045;-58
2021/11/05 04:12:27;;;;;;;11.40;9.03;;;;;;;;;;4539567;28;20029;-58
2021/11/05 04:14:37;;;;;;;11.70;9.43;;;;;;;;;;4537966;28;20603;-58
2021/11/05 04:16:48;;;;;;;11.37;9.30;;;;;;;;;;4538685;28;20040;-58
2021/11/05 04:18:58;;;;;;;12.13;8.60;;;;;;;;;;4540309;28;20036;-58
2021/11/05 04:21:09;;;;;;;11.60;9.57;;;;;;;;;;4540018;28;20500;-58
2021/11/05 04:23:20;;;;;;;11.53;9.17;;;;;;;;;;4520859;28;20032;-58
2021/11/05 04:25:30;;;;;;;11.57;9.40;;;;;;;;;;4537811;28;20280;-58
2021/11/05 04:27:41;;;;;;;11.93;10.07;;;;;;;;;;4539916;28;20073;-59
2021/11/05 04:29:51;;;;;;;12.27;9.27;;;;;;;;;;4538994;28;20037;-59
2021/11/05 04:32:03;;;;;;;12.53;10.47;;;;;;;;;;4497346;28;20192;-59
2021/11/05 04:34:14;;;;;;;12.45;10.07;;;;;;;;;;4522148;28;20037;-58
2021/11/05 04:36:24;;;;;;;11.67;9.83;;;;;;;;;;4539573;28;20044;-59
2021/11/05 04:38:35;;;;;;;12.37;10.30;;;;;;;;;;4521728;28;20034;-58
2021/11/05 04:40:45;;;;;;;12.70;9.83;;;;;;;;;;4522723;28;20083;-59
2021/11/05 04:42:56;;;;;;;13.07;10.93;;;;;;;;;;4539882;28;20056;-58
2021/11/05 04:45:07;;;;;;;12.60;10.50;;;;;;;;;;4539307;28;20064;-59
2021/11/05 04:47:17;;;;;;;12.37;10.43;;;;;;;;;;4538303;28;20105;-58
2021/11/05 04:49:27;;;;;;;12.50;10.50;;;;;;;;;;4521779;28;20387;-58
2021/11/05 04:51:38;;;;;;;11.93;10.10;;;;;;;;;;4538119;28;20119;-58
2021/11/05 04:53:48;;;;;;;12.77;10.33;;;;;;;;;;4539021;28;33767;-58
2021/11/05 04:55:59;;;;;;;11.50;10.20;;;;;;;;;;4521090;28;20034;-58
2021/11/05 04:58:09;;;;;;;12.23;10.33;;;;;;;;;;4539230;28;20033;-58
2021/11/05 05:00:22;;;;;;;12.87;10.63;;;;;;;;;;4539561;28;20029;-58
2021/11/05 05:02:32;;;;;;;12.00;10.35;;;;;;;;;;4519038;28;20040;-58
2021/11/05 05:04:45;;;;;;;12.27;10.40;;;;;;;;;;4540906;28;20413;-59
2021/11/05 05:06:56;;;;;;;11.85;9.63;;;;;;;;;;4542847;28;20092;-58
2021/11/05 05:09:06;;;;;;;11.83;9.43;;;;;;;;;;4540611;28;24855;-58
2021/11/05 05:11:17;;;;;;;12.33;9.17;;;;;;;;;;4524833;28;20045;-58
2021/11/05 05:13:27;;;;;;;12.63;10.37;;;;;;;;;;4524870;28;20389;-58
2021/11/05 05:15:37;;;;;;;11.70;9.23;;;;;;;;;;4541792;28;20048;-58
2021/11/05 05:17:48;;;;;;;11.63;9.43;;;;;;;;;;4540773;28;20075;-58
2021/11/05 05:19:58;;;;;;;12.93;10.30;;;;;;;;;;4541830;28;20033;-59
2021/11/05 05:22:09;;;;;;;11.23;9.07;;;;;;;;;;4542852;28;20160;-58
2021/11/05 05:24:19;;;;;;;12.00;9.53;;;;;;;;;;4541994;28;32643;-58
2021/11/05 05:26:30;;;;;;;12.20;9.40;;;;;;;;;;4542848;28;20041;-58
2021/11/05 05:28:40;;;;;;;12.50;9.77;;;;;;;;;;4542432;28;20084;-58
2021/11/05 05:30:53;;;;;;;11.40;9.10;;;;;;;;;;4542108;28;20029;-58
2021/11/05 05:33:04;;;;;;;11.85;9.20;;;;;;;;;;4542241;28;20041;-58
2021/11/05 05:35:14;;;;;;;12.07;9.73;;;;;;;;;;4540655;28;20044;-58
2021/11/05 05:37:25;;;;;;;12.07;9.57;;;;;;;;;;4541124;28;20083;-59
2021/11/05 05:39:35;;;;;;;11.80;9.23;;;;;;;;;;4541323;28;36415;-58
2021/11/05 05:41:46;;;;;;;11.43;8.80;;;;;;;;;;4524547;28;20076;-59
2021/11/05 05:43:56;;;;;;;11.57;8.80;;;;;;;;;;4542246;28;20036;-58
2021/11/05 05:46:06;;;;;;;11.77;8.90;;;;;;;;;;4540065;28;25852;-58
2021/11/05 05:48:17;;;;;;;10.67;7.97;;;;;;;;;;4542327;28;20129;-58
2021/11/05 05:50:28;;;;;;;12.00;8.53;;;;;;;;;;4524027;28;20574;-58
2021/11/05 05:52:38;;;;;;;10.87;8.37;;;;;;;;;;4506737;28;20100;-58
2021/11/05 05:54:48;;;;;;;10.17;8.07;;;;;;;;;;4524358;28;20448;-58
2021/11/05 05:56:59;;;;;;;10.73;8.47;;;;;;;;;;4540726;28;20049;-58
2021/11/05 05:59:10;;;;;;;10.50;8.33;;;;;;;;;;4541736;28;20032;-59
2021/11/05 06:01:20;;;;;;;10.30;7.80;;;;;;;;;;4523019;28;21161;-58
2021/11/05 06:03:31;;;;;;;10.93;8.40;;;;;;;;;;4524107;28;20169;-58
2021/11/05 06:05:41;;;;;;;10.77;8.40;;;;;;;;;;4524230;28;20336;-58
2021/11/05 06:07:52;;;;;;;10.53;7.73;;;;;;;;;;4541764;28;20816;-58
2021/11/05 06:10:03;;;;;;;11.07;8.43;;;;;;;;;;4541548;28;20234;-58
2021/11/05 06:12:14;;;;;;;10.95;8.32;;;;;;;;;;4538509;28;20050;-58
2021/11/05 06:14:24;;;;;;;11.60;8.90;;;;;;;;;;4539457;28;20041;-58
2021/11/05 06:16:35;;;;;;;11.00;8.10;;;;;;;;;;4540832;28;24644;-58
2021/11/05 06:18:45;;;;;;;10.80;8.43;;;;;;;;;;4541757;28;20029;-58
2021/11/05 06:20:56;;;;;;;11.47;8.87;;;;;;;;;;4523944;28;20084;-59
2021/11/05 06:23:06;;;;;;;10.77;8.43;;;;;;;;;;4541481;28;20029;-58
2021/11/05 06:25:17;;;;;;;11.77;8.90;;;;;;;;;;4541242;28;20041;-58
2021/11/05 06:27:27;;;;;;;11.18;8.40;;;;;;;;;;4542231;28;20040;-58
2021/11/05 06:29:39;;;;;;;11.47;9.00;;;;;;;;;;4540814;28;20059;-58
2021/11/05 06:31:49;;;;;;;11.85;8.93;;;;;;;;;;4540128;28;20642;-59
2021/11/05 06:34:03;;;;;;;10.97;8.33;;;;;;;;;;4541171;28;20315;-59
2021/11/05 06:36:13;;;;;;;12.05;9.07;;;;;;;;;;4520211;28;20034;-58
2021/11/05 06:38:24;;;;;;;11.20;7.93;;;;;;;;;;4541054;28;20037;-58
2021/11/05 06:40:35;;;;;;;13.00;9.17;;;;;;;;;;4540013;28;20148;-59
2021/11/05 06:42:45;;;;;;;11.53;8.63;;;;;;;;;;4522499;28;20033;-58
2021/11/05 06:44:56;;;;;;;12.37;8.73;;;;;;;;;;4523272;28;20124;-58
2021/11/05 06:47:07;;;;;;;11.17;8.53;;;;;;;;;;4540728;28;20411;-59
2021/11/05 06:49:17;;;;;;;11.25;8.57;;;;;;;;;;4541665;28;20037;-58
2021/11/05 06:51:28;;;;;;;11.93;9.07;;;;;;;;;;4539913;28;20036;-58
2021/11/05 06:53:38;;;;;;;10.37;8.40;;;;;;;;;;4521567;28;20064;-59
2021/11/05 06:55:49;;;;;;;11.73;8.37;;;;;;;;;;4539583;28;20116;-58
2021/11/05 06:58:00;;;;;;;11.40;8.47;;;;;;;;;;4522145;28;20037;-59
2021/11/05 07:00:11;;;;;;;13.97;9.27;;;;;;;;;;4539919;28;20017;-58
2021/11/05 07:02:22;;;;;;;11.93;9.23;;;;;;;;;;4498323;28;21072;-59
2021/11/05 07:04:32;;;;;;;11.13;8.53;;;;;;;;;;4540048;28;20036;-59
2021/11/05 07:06:46;;;;;;;11.57;8.80;;;;;;;;;;4539650;28;20260;-58
2021/11/05 07:08:56;;;;;;;12.95;8.95;;;;;;;;;;4539506;28;20721;-59
2021/11/05 07:11:07;;;;;;;12.53;9.17;;;;;;;;;;4504735;28;20038;-58
2021/11/05 07:13:17;;;;;;;12.90;10.27;;;;;;;;;;4538617;28;20033;-59
2021/11/05 07:15:28;;;;;;;12.07;9.83;;;;;;;;;;4522030;28;20506;-59
2021/11/05 07:17:38;;;;;;;13.40;9.90;;;;;;;;;;4539960;28;20048;-58
2021/11/05 07:19:49;;;;;;;13.40;10.33;;;;;;;;;;4522077;28;20596;-58
2021/11/05 07:22:02;;;;;;;13.60;10.00;;;;;;;;;;4538986;28;20036;-58
2021/11/05 07:24:13;;;;;;;13.95;10.75;;;;;;;;;;4521426;28;20072;-59
2021/11/05 07:26:24;;;;;;;14.67;10.73;;;;;;;;;;4537831;28;20044;-59
2021/11/05 07:28:35;;;;;;;14.90;11.48;;;;;;;;;;4537424;28;20021;-59
2021/11/05 07:30:45;;;;;;;14.47;10.93;;;;;;;;;;4538671;28;20524;-59
2021/11/05 07:32:56;;;;;;;14.77;11.33;;;;;;;;;;4538286;28;20037;-59
2021/11/05 07:35:07;;;;;;;14.03;11.13;;;;;;;;;;4539024;28;20075;-59
2021/11/05 07:37:18;;;;;;;15.13;11.40;;;;;;;;;;4538991;28;20041;-59
2021/11/05 07:39:29;;;;;;;14.95;11.38;;;;;;;;;;4539777;28;20025;-59
2021/11/05 07:41:39;;;;;;;16.35;12.52;;;;;;;;;;4521413;28;20033;-58
2021/11/05 07:43:50;;;;;;;17.17;13.10;;;;;;;;;;4539481;28;20045;-59
2021/11/05 07:46:00;;;;;;;17.10;12.80;;;;;;;;;;4521197;28;20029;-59
2021/11/05 07:48:11;;;;;;;18.97;14.17;;;;;;;;;;4521157;28;20044;-58
2021/11/05 07:50:24;;;;;;;17.23;13.27;;;;;;;;;;4539460;28;20044;-59
2021/11/05 07:52:35;;;;;;;17.60;13.18;;;;;;;;;;4539088;28;21222;-58
2021/11/05 07:54:47;;;;;;;17.98;13.30;;;;;;;;;;4504672;28;20030;-58
2021/11/05 07:56:57;;;;;;;17.67;13.02;;;;;;;;;;4521421;28;20085;-59
2021/11/05 07:59:08;;;;;;;17.20;12.80;;;;;;;;;;4536149;28;20049;-59
2021/11/05 08:01:18;;;;;;;16.57;12.87;;;;;;;;;;4520739;28;20417;-58
2021/11/05 08:03:29;;;;;;;16.83;12.97;;;;;;;;;;4539517;28;20037;-58
2021/11/05 08:05:39;;;;;;;16.17;12.20;;;;;;;;;;4538617;28;20021;-58
2021/11/05 08:07:50;;;;;;;16.23;12.10;;;;;;;;;;4538835;28;20044;-59
2021/11/05 08:10:00;;;;;;;15.20;11.60;;;;;;;;;;4538916;28;20045;-58
2021/11/05 08:12:11;;;;;;;15.57;11.60;;;;;;;;;;4524866;28;20087;-58
2021/11/05 08:14:21;;;;;;;15.50;12.13;;;;;;;;;;4537077;28;20037;-58
2021/11/05 08:16:32;;;;;;;15.93;12.07;;;;;;;;;;4539138;28;20096;-58
2021/11/05 08:18:43;;;;;;;16.37;12.17;;;;;;;;;;4538262;28;20037;-58
2021/11/05 08:20:54;;;;;;;15.63;11.15;;;;;;;;;;4521276;28;20140;-59
2021/11/05 08:23:04;;;;;;;15.50;11.88;;;;;;;;;;4538432;28;20031;-58
2021/11/05 08:25:17;;;;;;;15.57;12.10;;;;;;;;;;4538305;28;20040;-58
2021/11/05 08:27:28;;;;;;;17.13;12.13;;;;;;;;;;4538416;28;20059;-58
2021/11/05 08:29:38;;;;;;;16.53;12.47;;;;;;;;;;4538590;28;20403;-58
2021/11/05 08:31:49;;;;;;;15.70;12.20;;;;;;;;;;4536939;28;20052;-58
2021/11/05 08:34:00;;;;;;;16.43;12.63;;;;;;;;;;4537265;28;21036;-58
2021/11/05 08:36:12;;;;;;;15.80;11.98;;;;;;;;;;4519960;28;20566;-58
2021/11/05 08:38:25;;;;;;;15.63;11.70;;;;;;;;;;4539110;28;20076;-59
2021/11/05 08:40:35;;;;;;;15.98;12.05;;;;;;;;;;4523464;28;20034;-59
2021/11/05 08:42:46;;;;;;;15.80;11.97;;;;;;;;;;4523727;28;20498;-58
2021/11/05 08:44:57;;;;;;;15.60;11.75;;;;;;;;;;4542376;28;21010;-59
2021/11/05 08:47:08;;;;;;;15.85;11.63;;;;;;;;;;4541525;28;20029;-59
2021/11/05 08:49:22;;;;;;;14.40;10.57;;;;;;;;;;4541525;28;20037;-60
2021/11/05 08:51:33;;;;;;;13.80;10.43;;;;;;;;;;4522651;28;20025;-58
2021/11/05 08:53:44;;;;;;;14.43;10.30;;;;;;;;;;4541416;28;20041;-59
2021/11/05 08:55:54;;;;;;;13.35;9.88;;;;;;;;;;4540186;28;20155;-59
2021/11/05 08:58:07;;;;;;;13.40;9.73;;;;;;;;;;4540244;28;20095;-59
2021/11/05 09:00:24;;;;;;;14.18;10.52;;;;;;;;;;4541117;28;20056;-59
2021/11/05 09:02:35;;;;;;;13.30;9.48;;;;;;;;;;4541547;28;20041;-58
2021/11/05 09:04:45;;;;;;;13.20;9.37;;;;;;;;;;4523798;28;20033;-58
2021/11/05 09:06:57;;;;;;;13.17;10.00;;;;;;;;;;4541590;28;20052;-59
2021/11/05 09:09:07;;;;;;;14.20;10.52;;;;;;;;;;4523927;28;20213;-58
2021/11/05 09:11:18;;;;;;;14.63;10.10;;;;;;;;;;4540019;28;20092;-58
2021/11/05 09:13:30;;;;;;;12.70;9.50;;;;;;;;;;4506248;28;20105;-58
2021/11/05 09:15:41;;;;;;;13.70;10.35;;;;;;;;;;4523534;28;21056;-59
2021/11/05 09:17:53;;;;;;;14.93;10.57;;;;;;;;;;4540821;28;20596;-58
2021/11/05 09:20:05;;;;;;;13.90;10.00;;;;;;;;;;4521144;28;20041;-58
2021/11/05 09:22:16;;;;;;;14.73;10.25;;;;;;;;;;4540884;28;20040;-58
2021/11/05 09:24:27;;;;;;;13.03;9.60;;;;;;;;;;4541356;28;20041;-61
2021/11/05 09:26:37;;;;;;;13.00;9.37;;;;;;;;;;4540911;28;20804;-58
2021/11/05 09:28:48;;;;;;;13.30;9.70;;;;;;;;;;4541608;28;20180;-58
2021/11/05 09:30:59;;;;;;;12.73;9.30;;;;;;;;;;4541310;28;20029;-59
2021/11/05 09:33:10;;;;;;;;;;;;;;;;;;4542031;28;20605;-59
2021/11/05 09:35:21;;;;;;;11.90;9.27;;;;;;;;;;4523052;28;19920;-58
2021/11/05 09:37:32;;;;;;;12.98;9.45;;;;;;;;;;4523810;28;20042;-58
2021/11/05 09:39:43;;;;;;;12.43;9.00;;;;;;;;;;4540241;28;20040;-59
2021/11/05 09:41:53;;;;;;;13.25;9.20;;;;;;;;;;4541268;28;20041;-59
2021/11/05 09:44:04;;;;;;;13.10;9.07;;;;;;;;;;4541217;28;20377;-58
2021/11/05 09:46:14;;;;;;;12.97;9.47;;;;;;;;;;4524457;28;20036;-59
2021/11/05 09:48:26;;;;;;;14.07;9.60;;;;;;;;;;4541613;28;20029;-57
2021/11/05 09:50:39;;;;;;;12.30;8.35;;;;;;;;;;4539982;28;20126;-57
2021/11/05 09:52:50;;;;;;;12.32;8.68;;;;;;;;;;4540075;28;20536;-57
2021/11/05 09:55:03;;;;;;;12.90;8.90;;;;;;;;;;4541023;28;20071;-58
2021/11/05 09:57:13;;;;;;;13.45;9.20;;;;;;;;;;4541524;28;20041;-58
2021/11/05 09:59:26;;;;;;;12.63;8.93;;;;;;;;;;4542520;28;20100;-58
2021/11/05 10:01:41;;;;;;;13.67;9.80;;;;;;;;;;4541281;28;20033;-58
2021/11/05 10:03:51;;;;;;;12.10;8.65;;;;;;;;;;4523715;28;20026;-58
2021/11/05 10:06:05;;;;;;;12.20;8.20;;;;;;;;;;4541457;28;20080;-58
2021/11/05 10:08:34;;;;;;;12.43;8.63;;;;;;;;;;4541098;28;20103;-58
2021/11/05 10:10:44;;;;;;;12.18;8.52;;;;;;;;;;4540984;28;20037;-58
2021/11/05 10:13:04;;;;;;;14.40;8.73;;;;;;;;;;4538276;28;20037;-58
2021/11/05 10:15:14;;;;;;;13.02;8.30;;;;;;;;;;4540752;28;20084;-58
2021/11/05 10:17:25;;;;;;;13.37;9.10;;;;;;;;;;4522236;28;20053;-58
2021/11/05 10:19:47;;;;;;;11.03;7.47;;;;;;;;;;4539818;28;20041;-58
2021/11/05 10:21:58;;;;;;;11.98;8.52;;;;;;;;;;4538420;28;20666;-58
2021/11/05 10:24:11;;;;;;;12.40;8.20;;;;;;;;;;4538748;28;20055;-58
2021/11/05 10:26:32;;;;;;;13.77;8.73;;;;;;;;;;4540035;28;21170;-58
2021/11/05 10:28:43;;;;;;;11.88;8.13;;;;;;;;;;4540809;28;20037;-59
2021/11/05 10:31:02;;;;;;;12.20;8.07;;;;;;;;;;4539618;28;20037;-58
2021/11/05 10:33:15;;;;;;;11.85;8.38;;;;;;;;;;4539322;28;20769;-58
2021/11/05 10:35:26;;;;;;;13.45;8.55;;;;;;;;;;4539764;28;20064;-58
2021/11/05 10:37:37;;;;;;;13.73;8.60;;;;;;;;;;4523022;28;20046;-58
2021/11/05 10:39:56;;;;;;;13.35;8.55;;;;;;;;;;4522829;28;20030;-58
2021/11/05 10:42:09;;;;;;;13.77;9.00;;;;;;;;;;4539664;28;20667;-59
2021/11/05 10:44:19;;;;;;;14.45;8.40;;;;;;;;;;4522512;28;20049;-59
2021/11/05 10:46:41;;;;;;;14.20;8.97;;;;;;;;;;4540325;28;20481;-59
2021/11/05 10:48:54;;;;;;;12.02;8.20;;;;;;;;;;4523161;28;20553;-59
2021/11/05 10:51:07;;;;;;;13.30;7.95;;;;;;;;;;4522148;28;21601;-59
2021/11/05 10:53:19;;;;;;;13.25;8.50;;;;;;;;;;4540839;28;20148;-59
2021/11/05 10:56:05;;;;;;;13.80;8.73;;;;;;;;;;4521902;28;20041;-59
2021/11/05 10:58:27;;;;;;;12.10;8.45;;;;;;;;;;4531016;28;20053;-59
2021/11/05 11:00:39;;;;;;;13.25;8.98;;;;;;;;;;4518300;28;20034;-59
2021/11/05 11:02:50;;;;;;;13.45;8.80;;;;;;;;;;4539671;28;20807;-59
2021/11/05 11:05:30;;;;;;;15.30;9.30;;;;;;;;;;4522667;28;20021;-59
2021/11/05 11:07:40;;;;;;;14.13;9.43;;;;;;;;;;4540537;28;20033;-58
2021/11/05 11:09:50;;;;;;;14.10;9.07;;;;;;;;;;4540273;28;20037;-59
2021/11/05 11:12:03;;;;;;;12.43;8.23;;;;;;;;;;4539230;28;20401;-59
2021/11/05 11:14:30;;;;;;;13.88;9.75;;;;;;;;;;4540404;28;20045;-59
2021/11/05 11:16:46;;;;;;;15.90;9.77;;;;;;;;;;4539336;28;20157;-58
2021/11/05 11:19:27;;;;;;;14.55;9.02;;;;;;;;;;4539057;28;20128;-59
2021/11/05 11:21:47;;;;;;;14.60;9.25;;;;;;;;;;4537154;28;20131;-58
2021/11/05 11:24:02;;;;;;;14.93;9.05;;;;;;;;;;4540238;28;20496;-58
2021/11/05 11:26:16;;;;;;;14.35;9.15;;;;;;;;;;4539232;28;20033;-58
2021/11/05 11:28:26;;;;;;;13.70;8.97;;;;;;;;;;4539324;28;20079;-58
2021/11/05 11:30:37;;;;;;;13.63;8.83;;;;;;;;;;4540021;28;20061;-58
2021/11/05 11:32:50;;;;;;;14.33;9.80;;;;;;;;;;4539731;28;20560;-58
2021/11/05 11:35:00;;;;;;;17.02;11.25;;;;;;;;;;4520706;28;20607;-58
2021/11/05 11:37:11;;;;;;;15.03;10.40;;;;;;;;;;4521255;28;20045;-58
2021/11/05 11:39:22;;;;;;;13.67;9.37;;;;;;;;;;4539097;28;20068;-58
2021/11/05 11:41:34;;;;;;;12.85;8.57;;;;;;;;;;4539168;28;20108;-59
2021/11/05 11:43:45;;;;;;;13.80;8.45;;;;;;;;;;4520784;28;20145;-59
2021/11/05 11:45:57;;;;;;;12.53;8.47;;;;;;;;;;4519331;28;20069;-59
2021/11/05 11:48:07;;;;;;;14.02;9.07;;;;;;;;;;4537877;28;20037;-59
2021/11/05 11:50:20;;;;;;;13.43;8.97;;;;;;;;;;4538909;28;20025;-59
2021/11/05 11:52:33;;;;;;;13.25;8.57;;;;;;;;;;4536208;28;20044;-59
2021/11/05 11:54:45;;;;;;;12.80;9.07;;;;;;;;;;4519552;28;20660;-59
2021/11/05 11:57:12;;;;;;;14.45;9.35;;;;;;;;;;4539369;28;20048;-59
2021/11/05 11:59:29;;;;;;;13.88;9.40;;;;;;;;;;4520719;28;20034;-59
2021/11/05 12:01:42;;;;;;;13.85;8.82;;;;;;;;;;4538532;28;20029;-59
2021/11/05 12:03:56;;;;;;;12.25;8.23;;;;;;;;;;4535855;28;20033;-59
2021/11/05 12:06:07;;;;;;;11.85;8.25;;;;;;;;;;4521379;28;20064;-60
2021/11/05 12:08:27;;;;;;;13.00;8.33;;;;;;;;;;4539635;28;20577;-60
2021/11/05 12:10:39;;;;;;;14.38;9.52;;;;;;;;;;4538342;28;20041;-60
2021/11/05 12:12:49;;;;;;;15.20;9.43;;;;;;;;;;4521044;28;20034;-60
2021/11/05 12:15:00;;;;;;;11.80;8.43;;;;;;;;;;4539825;28;20033;-60
2021/11/05 12:17:11;;;;;;;13.55;8.80;;;;;;;;;;4520759;28;20675;-59
2021/11/05 12:19:33;;;;;;;12.73;8.43;;;;;;;;;;4519521;28;20041;-59
2021/11/05 12:22:05;;;;;;;12.90;8.05;;;;;;;;;;4538570;28;20037;-59
2021/11/05 12:24:25;;;;;;;12.15;8.15;;;;;;;;;;4537987;28;20037;-59
2021/11/05 12:26:55;;;;;;;13.35;8.75;;;;;;;;;;4538132;28;20710;-58
2021/11/05 12:29:06;;;;;;;14.45;8.45;;;;;;;;;;4538927;28;20044;-60
2021/11/05 12:31:30;;;;;;;13.53;8.40;;;;;;;;;;4539083;28;20044;-59
2021/11/05 12:33:40;;;;;;;13.10;7.93;;;;;;;;;;4536802;28;20029;-59
2021/11/05 12:35:52;;;;;;;13.17;8.37;;;;;;;;;;4519453;28;20048;-59
2021/11/05 12:38:09;;;;;;;13.63;8.20;;;;;;;;;;4538647;28;20161;-59
2021/11/05 12:40:30;;;;;;;12.63;8.05;;;;;;;;;;4538866;28;20044;-60
2021/11/05 12:42:42;;;;;;;11.95;8.13;;;;;;;;;;4537923;28;20036;-60
2021/11/05 12:44:58;;;;;;;;;;;;;;;;;;4538946;28;20529;-60
2021/11/05 12:47:09;;;;;;;11.45;7.25;;;;;;;;;;4520675;28;19928;-59
2021/11/05 12:49:20;;;;;;;13.53;8.40;;;;;;;;;;4521116;28;20608;-60
2021/11/05 12:51:35;;;;;;;13.55;8.65;;;;;;;;;;4537969;28;20252;-60
2021/11/05 12:53:55;;;;;;;12.77;8.05;;;;;;;;;;4537500;28;20037;-60
2021/11/05 12:56:06;;;;;;;13.85;7.90;;;;;;;;;;4538844;28;20048;-60